Time;durP1;ratioP1;P1;durP2;ratioP2;P2;SDS_P1;SDS_P2;PMS_P1;PMS_P2;Temp;Humidity;BMP_temperature;BMP_pressure;BME280_temperature;BME280_humidity;BME280_pressure;Samples;Min_cycle;Max_cycle;Signal;HPM_P1;HPM_P2
2021/06/23 00:01:32;;;;;;;30.10;7.20;;;;;;;24.80;69.07;98843.67;1749194;80;20923;-58
2021/06/23 00:03:58;;;;;;;33.80;6.25;;;;;;;24.75;69.41;98846.38;1749628;80;20996;-53
2021/06/23 00:06:24;;;;;;;32.53;7.35;;;;;;;24.75;69.81;98841.76;1748216;80;21769;-57
2021/06/23 00:08:51;;;;;;;36.30;7.72;;;;;;;24.86;69.93;98845.29;1749742;80;21575;-56
2021/06/23 00:11:19;;;;;;;35.88;7.22;;;;;;;24.90;69.86;98841.72;1758766;80;20990;-55
2021/06/23 00:13:46;;;;;;;29.75;6.65;;;;;;;24.87;70.06;98842.84;1749305;82;21076;-55
2021/06/23 00:16:12;;;;;;;34.35;8.28;;;;;;;24.81;70.26;98843.95;1749244;80;21451;-57
2021/06/23 00:18:40;;;;;;;37.17;7.85;;;;;;;24.82;70.48;98851.03;1772720;80;20936;-56
2021/06/23 00:21:07;;;;;;;32.10;7.45;;;;;;;24.81;70.45;98857.01;1770646;80;21591;-54
2021/06/23 00:23:33;;;;;;;38.42;8.15;;;;;;;24.74;70.65;98863.80;1752215;79;21053;-54
2021/06/23 00:26:00;;;;;;;35.08;7.30;;;;;;;24.64;70.86;98869.27;1760015;79;20984;-56
2021/06/23 00:28:26;;;;;;;41.60;7.67;;;;;;;24.54;71.03;98879.61;1772960;80;21029;-57
2021/06/23 00:30:53;;;;;;;39.08;8.68;;;;;;;24.45;71.39;98903.02;1724959;81;22271;-57
2021/06/23 00:33:21;;;;;;;33.60;7.37;;;;;;;24.24;72.61;98917.17;1760914;80;20989;-55
2021/06/23 00:35:48;;;;;;;31.68;6.35;;;;;;;24.03;73.08;98910.06;1772093;80;21067;-57
2021/06/23 00:38:15;;;;;;;30.52;5.80;;;;;;;23.94;73.39;98905.70;1745933;80;21016;-55
2021/06/23 00:40:44;;;;;;;33.35;6.20;;;;;;;23.95;73.37;98911.95;1752172;80;21533;-55
2021/06/23 00:43:10;;;;;;;51.70;8.08;;;;;;;23.98;73.57;98928.25;1730017;81;21120;-55
2021/06/23 00:45:36;;;;;;;33.38;5.97;;;;;;;24.05;73.85;98934.23;1759607;80;21018;-56
2021/06/23 00:48:08;;;;;;;39.05;6.70;;;;;;;24.09;73.68;98930.73;1774805;80;21425;-57
2021/06/23 00:50:35;;;;;;;31.75;6.95;;;;;;;24.13;73.59;98933.73;1743269;80;20904;-56
2021/06/23 00:53:08;;;;;;;33.55;6.62;;;;;;;24.19;73.31;98934.02;1744097;80;20968;-54
2021/06/23 00:55:37;;;;;;;32.65;7.33;;;;;;;24.24;72.95;98936.19;1742552;80;21083;-56
2021/06/23 00:58:05;;;;;;;37.33;7.05;;;;;;;24.25;72.84;98939.70;1756133;80;21440;-57
2021/06/23 01:00:34;;;;;;;37.55;8.43;;;;;;;24.31;72.77;98935.91;1754756;80;20982;-54
2021/06/23 01:03:03;;;;;;;36.08;6.55;;;;;;;24.41;72.37;98933.18;1741281;80;20911;-57
2021/06/23 01:05:32;;;;;;;39.58;7.42;;;;;;;24.40;72.16;98933.72;1775169;80;20979;-53
2021/06/23 01:08:00;;;;;;;38.35;7.20;;;;;;;24.40;72.07;98929.64;1764262;80;21309;-56
2021/06/23 01:10:34;;;;;;;35.75;6.15;;;;;;;24.40;71.92;98929.64;1750692;80;21007;-57
2021/06/23 01:13:37;;;;;;;31.05;6.53;;;;;;;24.36;72.06;98938.08;1768479;80;21536;-56
2021/06/23 01:16:09;;;;;;;33.92;6.97;;;;;;;24.27;72.29;98936.98;1759182;80;21029;-57
2021/06/23 01:18:38;;;;;;;39.90;7.20;;;;;;;24.10;73.44;98947.31;1758873;80;20999;-56
2021/06/23 01:21:07;;;;;;;29.85;6.83;;;;;;;24.01;73.97;98939.95;1769840;80;21168;-58
2021/06/23 01:23:34;;;;;;;32.23;6.85;;;;;;;23.94;74.28;98942.37;1764175;80;20939;-55
2021/06/23 01:26:01;;;;;;;30.68;6.90;;;;;;;23.91;74.99;98928.50;1770536;80;21007;-58
2021/06/23 01:28:28;;;;;;;32.65;5.95;;;;;;;23.97;75.05;98930.15;1767807;80;21572;-56
2021/06/23 01:31:06;;;;;;;32.73;6.85;;;;;;;24.06;75.01;98946.20;1727688;80;20948;-56
2021/06/23 01:33:32;;;;;;;27.77;6.37;;;;;;;24.11;74.78;98956.28;1763385;80;22011;-56
2021/06/23 01:35:59;;;;;;;21.85;6.17;;;;;;;24.20;74.67;98966.34;1747919;80;21141;-54
2021/06/23 01:38:26;;;;;;;30.45;5.85;;;;;;;24.28;74.47;98969.88;1770286;80;21038;-56
2021/06/23 01:40:53;;;;;;;38.92;7.17;;;;;;;24.28;74.35;98981.29;1761136;80;21038;-58
2021/06/23 01:43:21;;;;;;;35.60;6.92;;;;;;;24.20;74.46;98981.28;1761571;80;21007;-58
2021/06/23 01:45:50;;;;;;;31.07;7.03;;;;;;;24.06;75.07;98980.70;1767039;80;21583;-55
2021/06/23 01:48:23;;;;;;;39.78;7.75;;;;;;;23.95;75.78;98982.59;1759480;80;20951;-55
2021/06/23 01:50:58;;;;;;;29.18;5.45;;;;;;;23.93;76.12;98976.61;1764500;80;21462;-57
2021/06/23 01:53:29;;;;;;;27.02;5.80;;;;;;;23.98;76.19;98977.98;1770046;80;21085;-57
2021/06/23 01:55:56;;;;;;;37.53;6.72;;;;;;;24.08;76.03;98980.73;1770318;80;21074;-54
2021/06/23 01:58:23;;;;;;;31.48;7.17;;;;;;;24.14;75.89;98988.36;1755878;80;21115;-57
2021/06/23 02:01:16;;;;;;;20.65;5.20;;;;;;;24.19;75.64;98990.55;1768518;80;20975;-57
2021/06/23 02:04:05;;;;;;;26.57;6.50;;;;;;;24.22;75.61;98995.41;1757487;81;20982;-55
2021/06/23 02:06:51;;;;;;;25.57;5.85;;;;;;;24.27;75.53;99001.42;1741972;80;21085;-57
2021/06/23 02:10:03;;;;;;;37.38;6.37;;;;;;;24.23;75.61;99001.13;1749019;80;20982;-56
2021/06/23 02:13:13;;;;;;;30.93;6.53;;;;;;;24.25;75.66;99007.64;1692332;83;21155;-56
2021/06/23 02:15:40;;;;;;;33.28;6.30;;;;;;;24.33;75.63;99002.50;1757840;80;20867;-56
2021/06/23 02:18:09;;;;;;;22.75;5.58;;;;;;;24.38;75.92;99004.39;1753371;80;20915;-58
2021/06/23 02:20:41;;;;;;;33.88;5.70;;;;;;;24.38;76.04;99003.86;1773018;80;21026;-58
2021/06/23 02:23:09;;;;;;;29.60;6.60;;;;;;;24.40;76.18;99007.11;1761892;80;20996;-57
2021/06/23 02:25:38;;;;;;;31.45;6.25;;;;;;;24.39;76.36;99000.06;1778622;80;20962;-54
2021/06/23 02:28:13;;;;;;;29.92;6.15;;;;;;;24.39;76.86;99005.50;1785214;80;20812;-57
2021/06/23 02:30:39;;;;;;;38.20;6.40;;;;;;;24.40;77.09;99003.61;1764106;80;20951;-55
2021/06/23 02:33:07;;;;;;;36.10;7.87;;;;;;;24.41;77.27;99003.33;1760639;80;21382;-58
2021/06/23 02:35:37;;;;;;;29.65;5.85;;;;;;;24.43;77.27;99001.68;1755629;80;20927;-55
2021/06/23 02:38:05;;;;;;;31.68;6.53;;;;;;;24.46;76.71;99009.30;1747472;80;21031;-55
2021/06/23 02:40:33;;;;;;;23.83;5.78;;;;;;;24.47;75.87;99016.38;1769077;80;20927;-58
2021/06/23 02:43:01;;;;;;;31.02;6.03;;;;;;;24.58;74.72;99021.53;1787242;80;21002;-57
2021/06/23 02:45:28;;;;;;;29.98;5.72;;;;;;;24.66;72.87;99012.58;1770303;80;20900;-56
2021/06/23 02:47:55;;;;;;;31.10;6.83;;;;;;;24.81;71.55;99020.75;1756011;80;20896;-57
2021/06/23 02:50:36;;;;;;;26.33;5.80;;;;;;;24.83;70.29;99019.93;1770633;80;21164;-54
2021/06/23 02:53:11;;;;;;;20.12;4.72;;;;;;;24.90;69.93;99017.73;1770193;80;20955;-56
2021/06/23 02:55:38;;;;;;;31.17;5.35;;;;;;;24.96;69.57;99009.84;1768100;80;21003;-55
2021/06/23 02:58:05;;;;;;;20.77;4.92;;;;;;;25.04;68.96;99012.02;1778221;80;20959;-58
2021/06/23 03:00:32;;;;;;;30.40;5.97;;;;;;;25.05;68.64;99013.66;1770428;80;21018;-55
2021/06/23 03:02:59;;;;;;;27.52;5.42;;;;;;;25.07;68.41;99017.73;1763181;80;21823;-56
2021/06/23 03:05:27;;;;;;;26.02;4.67;;;;;;;25.13;68.47;99021.27;1754510;81;20934;-56
2021/06/23 03:07:54;;;;;;;26.25;5.47;;;;;;;25.21;68.49;99022.06;1777329;80;21037;-57
2021/06/23 03:10:22;;;;;;;22.40;5.95;;;;;;;25.31;68.65;99022.03;1786501;80;21029;-54
2021/06/23 03:13:06;;;;;;;38.58;5.70;;;;;;;25.38;68.85;99021.73;1760944;80;21089;-56
2021/06/23 03:15:51;;;;;;;30.48;5.92;;;;;;;25.52;68.72;99022.81;1771399;80;21146;-56
2021/06/23 03:18:22;;;;;;;27.77;6.42;;;;;;;25.54;68.75;99018.72;1754783;80;20984;-55
2021/06/23 03:20:49;;;;;;;18.75;5.28;;;;;;;25.61;68.69;99022.48;1756400;80;21520;-56
2021/06/23 03:23:16;;;;;;;27.13;6.20;;;;;;;25.66;68.62;99023.83;1778196;80;20910;-54
2021/06/23 03:25:44;;;;;;;23.47;4.92;;;;;;;25.75;68.54;99032.52;1775922;80;21006;-55
2021/06/23 03:28:11;;;;;;;29.52;6.45;;;;;;;25.83;68.52;99039.30;1755684;80;21942;-56
2021/06/23 03:30:39;;;;;;;29.45;6.35;;;;;;;25.89;68.69;99044.97;1758773;80;21492;-57
2021/06/23 03:33:06;;;;;;;29.57;6.00;;;;;;;25.96;68.74;99035.96;1766938;80;21599;-58
2021/06/23 03:35:34;;;;;;;25.52;5.25;;;;;;;25.98;68.83;99043.30;1784532;80;20903;-55
2021/06/23 03:38:01;;;;;;;27.65;5.87;;;;;;;26.11;68.65;99044.05;1762789;80;21480;-59
2021/06/23 03:40:27;;;;;;;19.48;5.10;;;;;;;26.25;68.39;99047.00;1756842;80;21844;-55
2021/06/23 03:42:54;;;;;;;22.25;6.22;;;;;;;26.45;67.78;99048.77;1780920;80;21064;-56
2021/06/23 03:45:21;;;;;;;38.60;7.08;;;;;;;26.56;67.10;99044.88;1778132;80;21441;-56
2021/06/23 03:47:48;;;;;;;27.77;5.75;;;;;;;26.58;66.95;99046.76;1781184;80;20994;-54
2021/06/23 03:50:16;;;;;;;23.38;5.45;;;;;;;26.63;66.91;99052.17;1774390;80;20915;-57
2021/06/23 03:52:44;;;;;;;29.42;6.47;;;;;;;26.67;66.33;99046.43;1760629;80;21122;-54
2021/06/23 03:55:19;;;;;;;25.82;6.10;;;;;;;26.68;65.68;99051.59;1765472;80;20919;-55
2021/06/23 03:57:42;;;;;;;30.32;5.78;;;;;;;26.69;65.09;99049.68;1752145;80;20974;-57
2021/06/23 04:00:10;;;;;;;31.52;6.65;;;;;;;26.82;64.21;99054.52;1767169;80;21461;-58
2021/06/23 04:02:39;;;;;;;29.27;6.40;;;;;;;26.92;62.92;99053.88;1758954;80;21471;-58
2021/06/23 04:05:08;;;;;;;27.35;6.60;;;;;;;27.01;61.36;99049.16;1753423;80;21468;-57
2021/06/23 04:07:38;;;;;;;31.02;5.97;;;;;;;27.16;60.36;99049.02;1767084;80;20998;-56
2021/06/23 04:10:07;;;;;;;28.70;6.00;;;;;;;27.32;60.06;99051.28;1768100;80;21038;-56
2021/06/23 04:12:35;;;;;;;19.37;5.35;;;;;;;27.52;59.50;99059.85;1756363;80;21472;-55
2021/06/23 04:15:06;;;;;;;25.40;6.10;;;;;;;27.69;59.22;99061.55;1768382;80;21526;-57
2021/06/23 04:17:33;;;;;;;28.30;6.42;;;;;;;27.82;58.75;99058.69;1782226;80;21156;-55
2021/06/23 04:19:59;;;;;;;35.85;6.90;;;;;;;27.92;57.85;99064.02;1738488;80;20888;-59
2021/06/23 04:22:28;;;;;;;33.80;6.92;;;;;;;27.93;57.95;99068.36;1749934;80;21015;-57
2021/06/23 04:24:56;;;;;;;34.50;7.12;;;;;;;27.90;58.05;99068.40;1741713;80;21077;-55
2021/06/23 04:27:23;;;;;;;41.68;7.65;;;;;;;28.07;58.39;99066.58;1769859;80;21109;-59
2021/06/23 04:29:50;;;;;;;39.30;9.00;;;;;;;28.20;56.73;99069.14;1769781;80;21155;-59
2021/06/23 04:32:17;;;;;;;37.23;10.13;;;;;;;28.29;56.32;99072.85;1763375;80;20939;-58
2021/06/23 04:34:45;;;;;;;31.52;8.10;;;;;;;28.38;56.33;99071.06;1753671;80;20971;-54
2021/06/23 04:37:16;;;;;;;44.90;7.80;;;;;;;28.55;54.69;99073.52;1750308;80;20992;-58
2021/06/23 04:39:43;;;;;;;28.40;7.62;;;;;;;28.58;54.08;99068.02;1735934;80;20908;-54
2021/06/23 04:42:11;;;;;;;40.33;6.58;;;;;;;28.68;54.02;99068.70;1761209;80;21125;-53
2021/06/23 04:44:38;;;;;;;27.52;6.12;;;;;;;28.94;52.69;99064.98;1766565;80;20933;-55
2021/06/23 04:47:06;;;;;;;27.80;5.53;;;;;;;29.22;52.50;99072.21;1765354;80;21006;-55
2021/06/23 04:49:33;;;;;;;31.70;6.55;;;;;;;29.59;50.47;99080.80;1764242;80;20911;-54
2021/06/23 04:52:23;;;;;;;25.37;4.95;;;;;;;29.71;50.53;99077.02;1763185;80;20927;-57
2021/06/23 04:54:50;;;;;;;27.10;6.25;;;;;;;29.97;50.68;99074.59;1753616;80;21121;-56
2021/06/23 04:57:17;;;;;;;34.35;5.75;;;;;;;30.42;49.73;99080.48;1747411;80;20958;-57
2021/06/23 04:59:44;;;;;;;27.50;5.20;;;;;;;30.58;47.12;99078.98;1743669;80;22599;-56
2021/06/23 05:02:12;;;;;;;25.62;5.58;;;;;;;30.48;48.10;99089.39;1752121;80;20954;-56
2021/06/23 05:04:41;;;;;;;29.07;5.83;;;;;;;30.55;46.86;99085.13;1734860;80;20966;-56
2021/06/23 05:07:08;;;;;;;25.92;6.08;;;;;;;30.47;47.19;99096.84;1737820;80;21917;-56
2021/06/23 05:09:39;;;;;;;34.45;5.80;;;;;;;30.42;47.13;99087.34;1761439;80;20920;-56
2021/06/23 05:12:07;;;;;;;23.02;6.33;;;;;;;30.37;46.61;99092.95;1767758;80;21611;-54
2021/06/23 05:14:35;;;;;;;28.98;6.97;;;;;;;30.17;47.39;99087.86;1747771;80;20997;-57
2021/06/23 05:17:04;;;;;;;31.68;6.37;;;;;;;30.00;47.69;99091.81;1741800;80;21002;-57
2021/06/23 05:19:33;;;;;;;28.10;5.78;;;;;;;29.80;48.75;99093.02;1763272;80;21172;-56
2021/06/23 05:22:03;;;;;;;36.70;6.65;;;;;;;29.73;49.00;99104.93;1758117;80;20907;-59
2021/06/23 05:24:28;;;;;;;29.80;6.05;;;;;;;29.66;49.25;99095.48;1757752;80;21017;-57
2021/06/23 05:26:55;;;;;;;25.90;5.83;;;;;;;29.53;50.03;99100.40;1723355;80;21049;-58
2021/06/23 05:29:21;;;;;;;38.17;6.12;;;;;;;29.33;50.99;99097.49;1758572;80;21571;-56
2021/06/23 05:31:48;;;;;;;30.00;6.12;;;;;;;29.14;51.43;99098.89;1760586;80;21152;-58
2021/06/23 05:34:14;;;;;;;34.95;7.40;;;;;;;29.00;51.33;99105.41;1748934;80;21113;-57
2021/06/23 05:36:41;;;;;;;27.17;6.53;;;;;;;28.91;51.53;99105.86;1749673;80;21103;-57
2021/06/23 05:39:07;;;;;;;24.60;5.97;;;;;;;29.01;51.73;99107.05;1749908;80;21501;-57
2021/06/23 05:41:34;;;;;;;26.02;6.30;;;;;;;29.35;51.12;99109.77;1761793;80;21124;-58
2021/06/23 05:44:00;;;;;;;29.35;6.03;;;;;;;29.65;50.65;99110.30;1761118;80;21136;-56
2021/06/23 05:46:27;;;;;;;39.08;6.60;;;;;;;29.98;50.62;99105.58;1758971;80;20966;-58
2021/06/23 05:48:53;;;;;;;45.88;7.05;;;;;;;30.27;49.60;99110.17;1783010;80;21424;-57
2021/06/23 05:51:20;;;;;;;33.70;6.90;;;;;;;30.24;48.25;99115.71;1782933;80;20987;-55
2021/06/23 05:53:46;;;;;;;31.45;7.80;;;;;;;30.01;49.09;99122.21;1782846;80;20959;-55
2021/06/23 05:56:14;;;;;;;40.35;7.40;;;;;;;29.79;49.89;99122.13;1776617;80;21113;-56
2021/06/23 05:58:41;;;;;;;37.53;6.35;;;;;;;29.70;50.42;99123.91;1750302;80;21477;-53
2021/06/23 06:01:08;;;;;;;40.20;7.42;;;;;;;29.79;51.48;99128.42;1775512;80;21014;-54
2021/06/23 06:03:34;;;;;;;24.15;6.35;;;;;;;29.89;50.43;99139.19;1768551;80;20865;-58
2021/06/23 06:06:02;;;;;;;46.25;6.87;;;;;;;30.24;50.04;99128.61;1750471;80;20951;-55
2021/06/23 06:08:28;;;;;;;29.25;6.55;;;;;;;30.65;48.69;99135.41;1781125;80;21145;-57
2021/06/23 06:10:57;;;;;;;42.98;7.05;;;;;;;30.81;47.39;99140.80;1782915;80;20962;-56
2021/06/23 06:13:23;;;;;;;42.40;7.87;;;;;;;30.87;47.46;99135.44;1777701;80;20998;-56
2021/06/23 06:15:49;;;;;;;44.98;8.18;;;;;;;30.70;47.91;99145.71;1750751;80;21494;-58
2021/06/23 06:18:16;;;;;;;35.92;7.35;;;;;;;30.46;48.50;99134.99;1775370;80;20914;-58
2021/06/23 06:20:42;;;;;;;35.68;7.22;;;;;;;30.24;48.97;99138.21;1749150;80;21141;-59
2021/06/23 06:23:08;;;;;;;28.80;6.65;;;;;;;30.04;50.11;99143.55;1748155;82;21489;-57
2021/06/23 06:25:36;;;;;;;52.17;8.33;;;;;;;30.15;50.67;99147.71;1748358;82;21485;-56
2021/06/23 06:28:03;;;;;;;35.58;7.45;;;;;;;30.44;50.05;99149.59;1748257;82;21000;-57
2021/06/23 06:30:29;;;;;;;45.45;7.37;;;;;;;30.68;50.05;99154.00;1747539;82;21067;-56
2021/06/23 06:32:56;;;;;;;43.17;7.37;;;;;;;30.90;49.52;99151.27;1745608;82;21860;-57
2021/06/23 06:35:22;;;;;;;50.15;7.95;;;;;;;31.16;48.66;99155.06;1748058;81;20987;-54
2021/06/23 06:37:50;;;;;;;40.67;7.28;;;;;;;31.67;47.21;99152.67;1748280;81;21059;-54
2021/06/23 06:40:17;;;;;;;52.50;9.68;;;;;;;32.03;45.28;99158.02;1748183;82;20928;-54
2021/06/23 06:42:44;;;;;;;46.50;8.53;;;;;;;32.20;45.47;99153.94;1743863;82;21070;-58
2021/06/23 06:45:11;;;;;;;32.30;7.33;;;;;;;32.37;45.84;99155.93;1745282;82;21144;-56
2021/06/23 06:47:38;;;;;;;43.58;7.60;;;;;;;32.65;45.03;99157.30;1748313;82;21032;-56
2021/06/23 06:50:07;;;;;;;41.00;8.38;;;;;;;32.94;43.32;99160.79;1748240;81;21031;-56
2021/06/23 06:52:33;;;;;;;43.28;8.63;;;;;;;32.87;43.13;99154.96;1744652;81;21085;-56
2021/06/23 06:55:00;;;;;;;59.53;10.18;;;;;;;32.94;43.34;99157.47;1744562;82;20977;-55
2021/06/23 06:57:26;;;;;;;38.63;7.37;;;;;;;32.84;43.49;99157.80;1748117;82;21341;-57
2021/06/23 06:59:52;;;;;;;39.92;7.45;;;;;;;32.86;43.76;99161.03;1744549;82;20840;-54
2021/06/23 07:02:19;;;;;;;65.28;9.05;;;;;;;33.10;44.01;99159.76;1748193;81;21022;-57
2021/06/23 07:04:45;;;;;;;55.58;9.50;;;;;;;33.51;43.32;99163.58;1748035;82;21121;-55
2021/06/23 07:07:11;;;;;;;47.43;9.28;;;;;;;33.46;42.19;99167.89;1746412;82;20939;-55
2021/06/23 07:09:39;;;;;;;57.45;8.85;;;;;;;33.32;41.59;99165.88;1746791;82;21143;-56
2021/06/23 07:12:07;;;;;;;46.00;9.20;;;;;;;33.28;43.12;99164.92;1747915;82;21053;-57
2021/06/23 07:14:34;;;;;;;62.88;9.50;;;;;;;33.49;43.46;99159.53;1748533;82;20865;-57
2021/06/23 07:17:00;;;;;;;58.40;9.70;;;;;;;33.59;42.18;99159.20;1748298;82;20979;-57
2021/06/23 07:19:26;;;;;;;45.75;8.00;;;;;;;33.80;42.57;99157.35;1748133;80;21066;-54
2021/06/23 07:21:53;;;;;;;70.52;10.30;;;;;;;34.08;42.59;99154.41;1748158;82;21038;-56
2021/06/23 07:24:19;;;;;;;53.80;9.30;;;;;;;34.49;41.57;99159.80;1745860;81;21022;-56
2021/06/23 07:26:48;;;;;;;71.10;11.50;;;;;;;34.69;40.00;99164.55;1747174;82;21449;-58
2021/06/23 07:29:16;;;;;;;40.08;8.93;;;;;;;34.57;39.77;99163.89;1748257;82;20864;-57
2021/06/23 07:32:06;;;;;;;60.48;9.73;;;;;;;34.54;39.73;99153.51;1748124;81;21457;-59
2021/06/23 07:36:42;;;;;;;66.30;10.05;;;;;;;33.97;38.73;99150.97;1746003;82;21082;-55
2021/06/23 07:39:11;;;;;;;62.17;10.13;;;;;;;34.05;38.74;99160.56;1746425;82;20899;-58
2021/06/23 07:41:39;;;;;;;46.25;10.43;;;;;;;34.22;38.63;99157.52;1745111;82;21046;-56
2021/06/23 07:44:08;;;;;;;56.63;10.00;;;;;;;34.45;39.25;99157.45;1744713;82;20895;-54
2021/06/23 07:46:42;;;;;;;50.03;7.97;;;;;;;34.86;39.22;99155.33;1746808;82;21150;-56
2021/06/23 07:49:06;;;;;;;53.83;9.60;;;;;;;35.24;38.57;99155.41;1744718;82;21465;-58
2021/06/23 08:09:42;;;;;;;38.98;7.55;;;;;;;36.73;35.07;99149.34;1746666;82;20932;-56
2021/06/23 08:14:39;;;;;;;30.68;6.72;;;;;;;36.78;34.33;99153.25;1748187;81;21031;-58
2021/06/23 08:17:05;;;;;;;37.95;5.83;;;;;;;36.73;34.02;99150.15;1748195;82;21045;-59
2021/06/23 08:19:32;;;;;;;45.73;6.78;;;;;;;36.63;33.67;99152.59;1753914;80;20952;-59
2021/06/23 08:21:58;;;;;;;38.33;7.80;;;;;;;36.72;34.04;99144.36;1768288;80;21092;-57
2021/06/23 08:24:24;;;;;;;39.48;7.15;;;;;;;37.25;33.57;99142.34;1758421;80;21818;-56
2021/06/23 08:26:50;;;;;;;33.42;6.85;;;;;;;37.89;32.43;99141.53;1771335;80;20900;-55
2021/06/23 08:29:17;;;;;;;27.13;6.33;;;;;;;38.18;32.00;99138.28;1742320;80;21050;-56
2021/06/23 08:31:43;;;;;;;31.52;6.70;;;;;;;38.71;31.99;99131.77;1765103;80;21663;-53
2021/06/23 08:34:09;;;;;;;25.37;6.60;;;;;;;38.86;30.74;99144.83;1774556;80;20994;-54
2021/06/23 08:36:36;;;;;;;35.45;6.50;;;;;;;38.52;31.99;99134.52;1774807;80;21197;-57
2021/06/23 08:39:03;;;;;;;29.57;6.75;;;;;;;38.58;31.65;99134.45;1751214;80;20976;-57
2021/06/23 08:41:29;;;;;;;20.55;5.05;;;;;;;38.78;31.34;99132.75;1742130;80;20971;-57
2021/06/23 08:43:58;;;;;;;22.77;5.22;;;;;;;38.92;30.01;99138.39;1742373;80;20980;-54
2021/06/23 08:46:25;;;;;;;24.87;5.33;;;;;;;39.01;30.04;99134.20;1742466;80;20948;-55
2021/06/23 08:48:52;;;;;;;20.50;5.65;;;;;;;38.90;29.90;99133.20;1760553;80;21156;-58
2021/06/23 08:51:21;;;;;;;25.37;5.87;;;;;;;39.25;29.96;99130.34;1774494;80;21524;-55
2021/06/23 08:53:47;;;;;;;23.73;5.62;;;;;;;39.77;28.61;99126.36;1774621;80;20963;-58
2021/06/23 08:56:14;;;;;;;20.97;5.70;;;;;;;39.97;28.23;99118.13;1751639;80;21545;-55
2021/06/23 08:58:40;;;;;;;15.28;5.55;;;;;;;39.86;28.07;99119.15;1774725;80;21101;-57
2021/06/23 09:01:07;;;;;;;19.57;6.00;;;;;;;39.88;28.92;99117.59;1773854;80;21186;-59
